Terminal Aerodrome Forecast
Issued by NWS Charleston, WV

Current Version | Previous Version | Graphics & Text | Print | Product List | Glossary On
Versions: 1 2 3 4 5 6 7 8 9 10 11 12 13 14 15 16 17 18 19 20 21 22 23 24 25 26 27 28 29
000
FTUS41 KRLX 250200 AAA
TAFHTS
TAF AMD
KHTS 250241Z 2503/2524 08002KT P6SM BKN090
     FM251200 12002KT 6SM -SHRA OVC035
     FM251400 13005KT 3SM SHRA BR OVC030
     FM251600 11007KT 2SM SHRA BR OVC018
     FM251800 09009KT 5SM SHRA BR OVC020
     FM252100 08009G13KT P6SM BKN025=

USA.gov is the U.S. government's official web portal to all federal, state and local government web resources and services.